Lynchburg, Illinois
Current Conditions -  °F | °C
As of 1:35 AM on Thursday 23 Oct 2014 (Local Time) from KIJX Reporting Station
Clear Clear  
Wind Chill: 43°   Ceiling: Unl
Heat Index: 45°   Visibility: 10mi
Dew Point: 39°   Wind: 5mph
Humidity: 77%   Direction: 150°SSE
Pressure: 30.22"   Gusts: NA
Location:  40.1345°N, 90.1653°W
Report Text: KIJX 230635Z AUTO 15004KT 10SM CLR 07/04 A3022 RMK AO2 T00740037
Loading
Personal Weather Stations






























Interactive Weather Map
Tropical Storm Tracking
New forecast layout! Learn more

10-Day Weather Forecast

Advertisements
Track Severe Weather on mobile